createdAt,value
2023-03-20T00:03:06.919Z,4.20
2023-03-20T00:06:52.356Z,3.80
2023-03-20T00:10:37.725Z,4.07
2023-03-20T00:14:22.487Z,3.90
2023-03-20T00:18:13.279Z,3.87
2023-03-20T00:21:58.982Z,3.70
2023-03-20T00:25:43.229Z,3.90
2023-03-20T00:29:27.621Z,3.77
2023-03-20T00:33:11.844Z,3.60
2023-03-20T00:36:55.000Z,3.60
2023-03-20T00:40:37.723Z,3.10
2023-03-20T00:44:23.339Z,3.50
2023-03-20T00:48:07.799Z,3.30
2023-03-20T00:51:52.323Z,3.50
2023-03-20T00:55:35.326Z,3.20
2023-03-20T00:59:20.183Z,3.93
2023-03-20T01:03:04.033Z,3.17
2023-03-20T01:06:47.315Z,2.77
2023-03-20T01:10:33.524Z,3.10
2023-03-20T01:14:17.956Z,2.87
2023-03-20T01:18:00.859Z,3.17
2023-03-20T01:21:44.035Z,3.10
2023-03-20T01:25:27.112Z,2.80
2023-03-20T01:29:19.023Z,2.90
2023-03-20T01:33:03.014Z,2.60
2023-03-20T01:36:50.370Z,3.17
2023-03-20T01:40:34.812Z,2.80
2023-03-20T01:44:23.212Z,2.80
2023-03-20T01:48:14.560Z,2.80
2023-03-20T01:51:58.273Z,2.63
2023-03-20T01:55:42.651Z,2.70
2023-03-20T01:59:28.503Z,2.40
2023-03-20T02:03:11.341Z,2.50
2023-03-20T02:06:54.104Z,2.60
2023-03-20T02:10:36.934Z,2.40
2023-03-20T02:14:19.825Z,2.30
2023-03-20T02:18:04.104Z,2.43
2023-03-20T02:22:26.390Z,2.07
2023-03-20T02:26:23.662Z,2.23
2023-03-20T02:30:51.352Z,2.00
2023-03-20T02:34:52.849Z,1.83
2023-03-20T02:39:01.460Z,1.80
2023-03-20T02:42:46.670Z,1.80
2023-03-20T02:46:35.409Z,1.80
2023-03-20T02:50:20.992Z,1.67
2023-03-20T02:54:09.433Z,1.60
2023-03-20T02:57:58.588Z,1.93
2023-03-20T03:01:44.007Z,2.00
2023-03-20T03:05:31.046Z,2.20
2023-03-20T03:09:18.631Z,1.73
2023-03-20T03:13:02.212Z,1.90
2023-03-20T03:16:46.053Z,1.50
2023-03-20T03:20:32.372Z,1.97
2023-03-20T03:24:40.265Z,1.90
2023-03-20T03:28:28.797Z,2.00
2023-03-20T03:32:24.467Z,2.17
2023-03-20T03:36:12.205Z,2.00
2023-03-20T03:40:03.266Z,2.40
2023-03-20T03:43:49.724Z,2.20
2023-03-20T03:47:34.677Z,2.67
2023-03-20T03:51:19.059Z,2.20
2023-03-20T03:55:04.975Z,2.30
2023-03-20T03:58:49.826Z,2.53
2023-03-20T04:02:32.537Z,2.20
2023-03-20T04:06:16.874Z,2.13
2023-03-20T04:09:59.639Z,2.77
2023-03-20T04:13:43.788Z,3.30
2023-03-20T04:17:26.449Z,2.80
2023-03-20T04:21:09.524Z,2.57
2023-03-20T04:24:52.658Z,2.43
2023-03-20T04:28:35.393Z,2.40
2023-03-20T04:32:19.505Z,2.33
2023-03-20T04:36:02.279Z,2.50
2023-03-20T04:39:45.012Z,2.60
2023-03-20T04:43:27.691Z,2.20
2023-03-20T04:47:10.365Z,2.27
2023-03-20T04:50:54.411Z,1.97
2023-03-20T04:54:37.117Z,2.27
2023-03-20T04:58:19.793Z,2.77
2023-03-20T05:02:02.421Z,2.20
2023-03-20T05:05:45.398Z,2.00
2023-03-20T05:09:29.505Z,2.00
2023-03-20T05:13:12.443Z,2.47
2023-03-20T05:16:55.539Z,2.70
2023-03-20T05:20:41.010Z,2.60
2023-03-20T05:24:23.765Z,2.60
2023-03-20T05:28:07.904Z,3.10
2023-03-20T05:31:50.671Z,2.73
2023-03-20T05:35:33.586Z,3.40
2023-03-20T05:39:16.568Z,3.40
2023-03-20T05:42:59.202Z,3.70
2023-03-20T05:46:43.277Z,3.50
2023-03-20T05:50:25.929Z,4.13
2023-03-20T05:54:08.604Z,3.73
2023-03-20T05:57:51.261Z,4.27
2023-03-20T06:01:33.960Z,4.67
2023-03-20T06:05:18.157Z,4.80
2023-03-20T06:09:00.876Z,4.73
2023-03-20T06:12:43.630Z,4.80
2023-03-20T06:16:27.328Z,5.00
2023-03-20T06:20:11.384Z,5.07
2023-03-20T06:23:56.676Z,5.03
2023-03-20T06:27:39.445Z,5.87
2023-03-20T06:31:22.248Z,5.00
2023-03-20T06:35:06.056Z,5.67
2023-03-20T06:38:48.738Z,5.57
2023-03-20T06:42:32.853Z,5.63
2023-03-20T06:46:15.668Z,5.50
2023-03-20T06:49:58.314Z,5.90
2023-03-20T06:53:41.649Z,5.93
2023-03-20T06:57:24.380Z,5.83
2023-03-20T07:01:12.048Z,5.37
2023-03-20T07:04:54.794Z,5.47
2023-03-20T07:08:37.542Z,5.73
2023-03-20T07:12:20.820Z,5.57
2023-03-20T07:16:05.232Z,6.00
2023-03-20T07:19:49.476Z,5.63
2023-03-20T07:23:34.337Z,5.57
2023-03-20T07:27:17.890Z,5.93
2023-03-20T07:31:00.835Z,5.70
2023-03-20T07:34:43.715Z,5.40
2023-03-20T07:38:27.804Z,6.17
2023-03-20T07:42:10.508Z,5.57
2023-03-20T07:45:53.187Z,5.30
2023-03-20T07:49:36.342Z,5.37
2023-03-20T07:53:19.400Z,5.17
2023-03-20T07:57:05.403Z,5.13
2023-03-20T08:00:48.124Z,5.63
2023-03-20T08:04:30.796Z,5.30
2023-03-20T08:08:13.778Z,5.30
2023-03-20T08:11:56.630Z,5.40
2023-03-20T08:15:40.856Z,5.40
2023-03-20T08:19:24.209Z,5.73
2023-03-20T08:23:08.008Z,5.23
2023-03-20T08:26:50.687Z,5.37
2023-03-20T08:30:33.408Z,4.70
2023-03-20T08:34:17.512Z,4.80
2023-03-20T08:38:00.350Z,4.70
2023-03-20T08:41:45.850Z,4.80
2023-03-20T08:45:30.744Z,4.50
2023-03-20T08:49:13.593Z,5.00
2023-03-20T08:52:57.625Z,4.90
2023-03-20T08:56:40.428Z,4.30
2023-03-20T09:00:24.205Z,4.40
2023-03-20T09:04:06.923Z,4.20
2023-03-20T09:07:49.620Z,4.57
2023-03-20T09:11:34.291Z,3.40
2023-03-20T09:15:17.092Z,3.00
2023-03-20T09:18:59.887Z,3.57
2023-03-20T09:22:43.822Z,3.60
2023-03-20T09:26:29.129Z,3.30
2023-03-20T09:30:14.828Z,3.10
2023-03-20T09:33:57.446Z,3.20
2023-03-20T09:37:40.193Z,4.43
2023-03-20T09:41:26.130Z,3.60
2023-03-20T09:45:15.672Z,3.00
2023-03-20T09:49:04.127Z,2.60
2023-03-20T09:52:53.173Z,2.50
2023-03-20T09:56:36.123Z,2.83
2023-03-20T10:00:22.331Z,2.40
2023-03-20T10:04:09.252Z,2.27
2023-03-20T10:07:53.563Z,2.53
2023-03-20T10:11:51.804Z,1.50
2023-03-20T10:15:44.762Z,1.20
2023-03-20T10:19:30.064Z,0.90
2023-03-20T10:23:18.054Z,0.90
2023-03-20T10:27:07.824Z,1.00
2023-03-20T10:30:58.559Z,1.30
2023-03-20T10:34:51.383Z,1.03
2023-03-20T10:38:37.950Z,1.00
2023-03-20T10:42:22.848Z,1.53
2023-03-20T10:46:11.720Z,1.20
2023-03-20T10:49:56.888Z,1.17
2023-03-20T10:53:46.511Z,1.43
2023-03-20T10:57:32.008Z,1.30
2023-03-20T11:01:16.236Z,1.37
2023-03-20T11:05:01.565Z,1.33
2023-03-20T11:08:48.830Z,1.77
2023-03-20T11:12:34.442Z,1.20
2023-03-20T11:16:24.227Z,1.43
2023-03-20T11:20:08.346Z,1.40
2023-03-20T11:24:00.833Z,1.13
2023-03-20T11:27:43.773Z,1.33
2023-03-20T11:31:32.449Z,1.33
2023-03-20T11:35:24.941Z,2.03
2023-03-20T11:39:11.724Z,4.23
2023-03-20T11:42:55.671Z,1.50
2023-03-20T11:46:39.723Z,1.40
2023-03-20T11:50:32.800Z,1.10
2023-03-20T11:54:17.627Z,1.17
2023-03-20T11:58:01.357Z,1.10
2023-03-20T12:01:47.251Z,1.00
2023-03-20T12:05:32.880Z,1.10
2023-03-20T12:09:26.965Z,1.20
2023-03-20T12:13:14.608Z,1.30
2023-03-20T12:17:07.441Z,1.40
2023-03-20T12:20:58.576Z,1.73
2023-03-20T12:24:45.258Z,1.60
2023-03-20T12:28:33.465Z,1.30
2023-03-20T12:32:21.720Z,1.30
2023-03-20T12:36:06.269Z,1.10
2023-03-20T12:39:51.015Z,1.57
2023-03-20T12:43:41.341Z,1.40
2023-03-20T12:47:42.150Z,1.60
2023-03-20T12:51:43.957Z,1.83
2023-03-20T12:55:34.955Z,1.50
2023-03-20T12:59:28.779Z,1.47
2023-03-20T13:03:46.850Z,1.27
2023-03-20T13:07:42.664Z,1.77
2023-03-20T13:11:30.764Z,1.47
2023-03-20T13:15:23.311Z,1.47
2023-03-20T13:19:12.741Z,1.37
2023-03-20T13:23:01.006Z,1.50
2023-03-20T13:26:49.157Z,1.67
2023-03-20T13:30:35.954Z,3.10
2023-03-20T13:34:33.667Z,3.40
2023-03-20T13:38:19.983Z,2.17
2023-03-20T13:42:03.882Z,1.70
2023-03-20T13:45:47.544Z,1.57
2023-03-20T13:49:36.320Z,1.67
2023-03-20T13:53:28.412Z,1.73
2023-03-20T13:57:17.774Z,1.47
2023-03-20T14:01:03.463Z,1.70
2023-03-20T14:04:48.334Z,1.50
2023-03-20T14:08:35.482Z,1.60
2023-03-20T14:12:19.958Z,1.40
2023-03-20T14:16:04.302Z,1.30
2023-03-20T14:19:49.010Z,1.43
2023-03-20T14:23:36.880Z,1.40
2023-03-20T14:27:36.767Z,1.50
2023-03-20T14:31:28.014Z,1.37
2023-03-20T14:35:24.964Z,1.40
2023-03-20T14:39:14.874Z,1.50
2023-03-20T14:43:00.445Z,1.40
2023-03-20T14:46:49.449Z,1.70
2023-03-20T14:50:36.413Z,1.30
2023-03-20T14:54:28.155Z,1.70
2023-03-20T14:58:34.907Z,1.80
2023-03-20T15:02:26.819Z,1.63
2023-03-20T15:06:11.704Z,1.40
2023-03-20T15:09:56.596Z,1.70
2023-03-20T15:13:44.056Z,1.90
2023-03-20T15:17:28.637Z,1.57
2023-03-20T15:21:17.222Z,1.53
2023-03-20T15:24:59.876Z,1.40
2023-03-20T15:28:44.339Z,1.50
2023-03-20T15:32:27.202Z,1.57
2023-03-20T15:36:11.600Z,1.50
2023-03-20T15:39:56.882Z,1.40
2023-03-20T15:43:42.487Z,1.60
2023-03-20T15:47:26.372Z,1.40
2023-03-20T15:51:11.380Z,1.13
2023-03-20T15:54:55.633Z,1.20
2023-03-20T15:58:39.241Z,1.40
2023-03-20T16:02:21.961Z,1.40
2023-03-20T16:06:06.327Z,1.43
2023-03-20T16:09:50.861Z,1.40
2023-03-20T16:13:39.013Z,1.30
2023-03-20T16:17:23.841Z,1.53
2023-03-20T16:21:08.404Z,1.47
2023-03-20T16:24:52.898Z,1.80
2023-03-20T16:28:38.652Z,1.70
2023-03-20T16:32:27.012Z,1.77
2023-03-20T16:36:18.780Z,1.70
2023-03-20T16:40:20.053Z,1.53
2023-03-20T16:44:09.228Z,1.47
2023-03-20T16:47:52.163Z,1.70
2023-03-20T16:51:34.911Z,1.90
2023-03-20T16:55:22.886Z,1.70
2023-03-20T16:59:09.508Z,1.50
2023-03-20T17:02:53.850Z,1.67
2023-03-20T17:06:39.218Z,1.70
2023-03-20T17:10:26.997Z,1.93
2023-03-20T17:14:11.245Z,1.83
2023-03-20T17:17:54.032Z,2.13
2023-03-20T17:21:36.779Z,1.70
2023-03-20T17:25:20.167Z,2.00
2023-03-20T17:29:02.951Z,2.03
2023-03-20T17:32:47.202Z,2.20
2023-03-20T17:36:32.129Z,1.93
2023-03-20T17:40:19.180Z,1.67
2023-03-20T17:44:01.967Z,2.10
2023-03-20T17:47:45.413Z,1.80
2023-03-20T17:51:29.688Z,2.03
2023-03-20T17:55:12.513Z,2.20
2023-03-20T17:58:55.231Z,2.83
2023-03-20T18:02:38.011Z,2.50
2023-03-20T18:06:24.550Z,2.33
2023-03-20T18:10:17.327Z,2.87
2023-03-20T18:14:01.869Z,2.67
2023-03-20T18:17:44.541Z,3.10
2023-03-20T18:21:27.227Z,3.43
2023-03-20T18:25:11.294Z,3.03
2023-03-20T18:28:55.568Z,2.60
2023-03-20T18:32:38.306Z,2.90
2023-03-20T18:36:22.601Z,3.07
2023-03-20T18:40:08.844Z,2.40
2023-03-20T18:43:55.554Z,2.47
2023-03-20T18:47:38.294Z,2.60
2023-03-20T18:51:21.680Z,3.27
2023-03-20T18:55:04.649Z,3.83
2023-03-20T18:58:48.569Z,3.80
2023-03-20T19:02:32.876Z,4.43
2023-03-20T19:06:17.695Z,3.83
2023-03-20T19:10:00.423Z,4.50
2023-03-20T19:13:45.461Z,5.00
2023-03-20T19:17:28.124Z,5.10
2023-03-20T19:21:12.132Z,4.83
2023-03-20T19:24:54.787Z,5.90
2023-03-20T19:28:41.163Z,4.93
2023-03-20T19:32:24.255Z,4.70
2023-03-20T19:36:07.791Z,3.70
2023-03-20T19:39:51.993Z,3.70
2023-03-20T19:43:42.585Z,3.90
2023-03-20T19:47:34.429Z,3.87
2023-03-20T19:51:18.513Z,3.47
2023-03-20T19:55:03.795Z,3.97
2023-03-20T19:58:46.707Z,3.53
2023-03-20T20:02:29.633Z,3.83
2023-03-20T20:06:12.457Z,3.50
2023-03-20T20:09:55.308Z,3.50
2023-03-20T20:13:53.454Z,3.17
2023-03-20T20:17:42.450Z,3.40
2023-03-20T20:25:28.054Z,3.10
2023-03-20T20:29:12.069Z,3.53
2023-03-20T20:33:02.846Z,3.77
2023-03-20T20:40:49.921Z,3.80
2023-03-20T20:44:34.034Z,3.90
2023-03-20T20:48:17.388Z,3.50
2023-03-20T20:52:00.110Z,3.53
2023-03-20T20:55:42.768Z,3.67
2023-03-20T20:59:25.618Z,3.40
2023-03-20T21:03:09.713Z,3.20
2023-03-20T21:07:10.705Z,3.57
2023-03-20T21:10:54.013Z,3.47
2023-03-20T21:14:37.151Z,3.00
2023-03-20T21:18:21.175Z,3.77
2023-03-20T21:22:07.384Z,2.77
2023-03-20T21:25:50.298Z,2.50
2023-03-20T21:29:33.118Z,3.00
2023-03-20T21:33:16.029Z,2.70
2023-03-20T21:37:56.114Z,2.83
2023-03-20T21:41:10.119Z,3.07
2023-03-20T21:45:54.298Z,3.60
2023-03-20T21:49:46.554Z,2.90
2023-03-20T21:53:45.981Z,2.73
2023-03-20T21:57:42.767Z,2.93
2023-03-20T22:01:53.835Z,3.10
2023-03-20T22:05:48.604Z,2.57
2023-03-20T22:14:12.645Z,2.50
2023-03-20T22:22:12.060Z,2.60
2023-03-20T22:26:00.718Z,3.20
2023-03-20T22:30:07.134Z,2.80
2023-03-20T22:45:52.064Z,2.80
2023-03-20T22:49:42.497Z,3.30
2023-03-20T22:53:25.381Z,2.80
2023-03-20T22:57:09.449Z,3.13
2023-03-20T23:00:54.922Z,2.60
2023-03-20T23:04:37.704Z,3.00
2023-03-20T23:08:20.955Z,2.83
2023-03-20T23:12:03.692Z,2.60
2023-03-20T23:15:50.597Z,2.60
2023-03-20T23:19:44.801Z,2.80
2023-03-20T23:23:29.974Z,2.60
2023-03-20T23:27:12.709Z,2.57
2023-03-20T23:31:09.395Z,2.57
2023-03-20T23:34:52.636Z,2.70
2023-03-20T23:38:35.863Z,2.60
2023-03-20T23:42:29.949Z,2.70
2023-03-20T23:46:15.078Z,3.00
2023-03-20T23:49:57.793Z,2.60
2023-03-20T23:53:40.653Z,3.07
2023-03-20T23:57:23.300Z,3.00
